createdAt,value
2023-04-16T00:00:00.469Z,7.44
2023-04-16T00:05:00.757Z,7.44
2023-04-16T00:10:00.326Z,7.44
2023-04-16T00:15:00.561Z,8.02
2023-04-16T00:20:00.570Z,9.07
2023-04-16T00:25:00.381Z,9.1
2023-04-16T00:30:00.516Z,8.78
2023-04-16T00:35:00.319Z,8.27
2023-04-16T00:40:00.362Z,7.75
2023-04-16T00:45:00.591Z,7.99
2023-04-16T00:50:00.320Z,7.99
2023-04-16T00:55:00.478Z,7.45
2023-04-16T01:00:00.514Z,7.45
2023-04-16T01:05:00.455Z,7.45
2023-04-16T01:10:00.358Z,7.45
2023-04-16T01:15:00.627Z,7.45
2023-04-16T01:20:00.372Z,6.92
2023-04-16T01:25:00.491Z,6.92
2023-04-16T01:30:00.662Z,6.92
2023-04-16T01:35:00.362Z,6.92
2023-04-16T01:40:00.327Z,7.3
2023-04-16T01:45:00.484Z,7.03
2023-04-16T01:50:00.334Z,7.03
2023-04-16T01:55:00.361Z,7.03
2023-04-16T02:00:00.468Z,7.47
2023-04-16T02:05:00.883Z,7.47
2023-04-16T02:10:00.415Z,7.65
2023-04-16T02:15:00.564Z,7.72
2023-04-16T02:20:00.335Z,7.6
2023-04-16T02:25:02.451Z,7.69
2023-04-16T02:30:03.298Z,8.72
2023-04-16T02:35:00.353Z,9.03
2023-04-16T02:40:00.464Z,9.24
2023-04-16T02:45:00.608Z,8.72
2023-04-16T02:50:00.556Z,8.72
2023-04-16T02:55:00.344Z,8.72
2023-04-16T03:00:00.669Z,8.31
2023-04-16T03:05:00.318Z,8.31
2023-04-16T03:10:00.452Z,8.55
2023-04-16T03:15:00.542Z,8.86
2023-04-16T03:20:00.335Z,8.86
2023-04-16T03:25:00.436Z,8.36
2023-04-16T03:30:00.574Z,8.11
2023-04-16T03:35:00.411Z,8.65
2023-04-16T03:40:00.315Z,8.65
2023-04-16T03:45:00.583Z,8.65
2023-04-16T03:50:00.305Z,9.17
2023-04-16T03:55:00.445Z,9.07
2023-04-16T04:00:00.478Z,9.07
2023-04-16T04:05:00.484Z,9.07
2023-04-16T04:10:00.344Z,9.07
2023-04-16T04:15:00.467Z,9.07
2023-04-16T04:20:01.701Z,8.57
2023-04-16T04:25:00.360Z,8.45
2023-04-16T04:30:00.576Z,8.45
2023-04-16T04:35:00.325Z,9.01
2023-04-16T04:40:00.381Z,8.96
2023-04-16T04:45:00.660Z,8.96
2023-04-16T04:50:00.318Z,9.2
2023-04-16T04:55:00.453Z,9.2
2023-04-16T05:00:00.967Z,9.2
2023-04-16T05:05:00.547Z,9.2
2023-04-16T05:10:00.334Z,9.2
2023-04-16T05:15:00.549Z,9.05
2023-04-16T05:20:00.326Z,8.74
2023-04-16T05:25:00.374Z,8.86
2023-04-16T05:30:01.277Z,8.87
2023-04-16T05:35:00.322Z,9.02
2023-04-16T05:40:00.441Z,9.13
2023-04-16T05:45:00.636Z,9.19
2023-04-16T05:50:00.341Z,8.99
2023-04-16T05:55:00.394Z,9.51
2023-04-16T06:00:00.432Z,9.51
2023-04-16T06:05:00.605Z,9.51
2023-04-16T06:10:00.326Z,9.71
2023-04-16T06:15:00.541Z,9.71
2023-04-16T06:20:00.317Z,9.43
2023-04-16T06:25:00.463Z,9.43
2023-04-16T06:30:00.604Z,9.43
2023-04-16T06:35:00.382Z,9.43
2023-04-16T06:40:00.320Z,9.43
2023-04-16T06:45:00.632Z,9.43
2023-04-16T06:50:00.348Z,9.43
2023-04-16T06:55:00.386Z,9.43
2023-04-16T07:00:00.537Z,9.43
2023-04-16T07:05:00.449Z,9.6
2023-04-16T07:10:00.336Z,9.6
2023-04-16T07:15:00.611Z,9.24
2023-04-16T07:20:00.842Z,9.27
2023-04-16T07:25:00.372Z,8.75
2023-04-16T07:30:00.500Z,8.75
2023-04-16T07:35:00.317Z,8.75
2023-04-16T07:40:00.558Z,8.75
2023-04-16T07:45:00.651Z,8.75
2023-04-16T07:50:00.417Z,9.27
2023-04-16T07:55:00.333Z,10.42
2023-04-16T08:00:00.476Z,10.3
2023-04-16T08:05:00.357Z,10.3
2023-04-16T08:10:00.363Z,10.94
2023-04-16T08:15:00.537Z,10.94
2023-04-16T08:20:00.354Z,10.94
2023-04-16T08:25:00.398Z,12.01
2023-04-16T08:30:00.556Z,12.01
2023-04-16T08:35:00.400Z,12.01
2023-04-16T08:40:00.374Z,12.01
2023-04-16T08:45:00.785Z,12.01
2023-04-16T08:50:00.316Z,12.01
2023-04-16T08:55:00.454Z,12.22
2023-04-16T09:00:00.549Z,12.23
2023-04-16T09:05:00.372Z,12.78
2023-04-16T09:10:00.383Z,12.78
2023-04-16T09:15:01.145Z,12.78
2023-04-16T09:20:00.329Z,13.3
2023-04-16T09:25:00.374Z,13.3
2023-04-16T09:30:01.808Z,13.3
2023-04-16T09:35:00.328Z,13.83
2023-04-16T09:40:00.498Z,13.83
2023-04-16T09:45:02.626Z,14.36
2023-04-16T09:50:00.463Z,14.89
2023-04-16T09:55:00.332Z,14.89
2023-04-16T10:00:00.897Z,15.41
2023-04-16T10:05:00.318Z,15.41
2023-04-16T10:10:00.462Z,15.41
2023-04-16T10:15:00.583Z,16.42
2023-04-16T10:20:00.380Z,16.42
2023-04-16T10:25:00.371Z,16.42
2023-04-16T10:30:00.810Z,16.42
2023-04-16T10:35:00.309Z,16.93
2023-04-16T10:40:00.450Z,17.48
2023-04-16T10:45:00.454Z,17.48
2023-04-16T10:50:00.399Z,17.99
2023-04-16T10:55:00.361Z,17.99
2023-04-16T11:00:00.651Z,18.5
2023-04-16T11:05:00.440Z,18.5
2023-04-16T11:10:00.506Z,18.5
2023-04-16T11:15:00.846Z,18.5
2023-04-16T11:20:00.444Z,19.06
2023-04-16T11:25:00.417Z,19.06
2023-04-16T11:30:00.545Z,19.06
2023-04-16T11:35:00.339Z,19.17
2023-04-16T11:40:00.433Z,19.17
2023-04-16T11:45:00.526Z,19.17
2023-04-16T11:50:00.401Z,19.57
2023-04-16T11:55:00.320Z,19.57
2023-04-16T12:00:01.539Z,19.57
2023-04-16T12:05:00.403Z,19.57
2023-04-16T12:10:00.407Z,19.57
2023-04-16T12:15:00.417Z,20.09
2023-04-16T12:20:01.011Z,20.09
2023-04-16T12:25:00.355Z,19.6
2023-04-16T12:30:00.818Z,19.75
2023-04-16T12:35:00.352Z,19.24
2023-04-16T12:40:00.618Z,19.77
2023-04-16T12:45:00.542Z,19.77
2023-04-16T12:50:00.425Z,19.77
2023-04-16T12:55:00.327Z,20.29
2023-04-16T13:00:00.596Z,20.82
2023-04-16T13:05:00.322Z,20.82
2023-04-16T13:10:00.476Z,21.33
2023-04-16T13:15:00.422Z,21.33
2023-04-16T13:20:00.375Z,20.82
2023-04-16T13:25:00.334Z,20.3
2023-04-16T13:30:00.526Z,19.78
2023-04-16T13:35:00.325Z,19.78
2023-04-16T13:40:00.426Z,19.78
2023-04-16T13:45:00.526Z,19.78
2023-04-16T13:50:00.413Z,19.27
2023-04-16T13:55:00.388Z,19.27
2023-04-16T14:00:00.744Z,19.27
2023-04-16T14:05:00.330Z,19.27
2023-04-16T14:10:00.383Z,19.27
2023-04-16T14:15:00.435Z,19.2
2023-04-16T14:20:00.376Z,19.2
2023-04-16T14:25:00.345Z,19.2
2023-04-16T14:30:00.812Z,19.79
2023-04-16T14:35:00.322Z,19.79
2023-04-16T14:40:00.490Z,19.79
2023-04-16T14:45:00.556Z,19.79
2023-04-16T14:50:00.415Z,19.79
2023-04-16T14:55:00.351Z,19.79
2023-04-16T15:00:00.702Z,19.79
2023-04-16T15:05:01.058Z,20.32
2023-04-16T15:10:00.552Z,20.32
2023-04-16T15:15:00.496Z,20.16
2023-04-16T15:20:00.346Z,19.21
2023-04-16T15:25:00.450Z,18.71
2023-04-16T15:30:00.635Z,18.19
2023-04-16T15:35:00.315Z,18.19
2023-04-16T15:40:00.464Z,17.68
2023-04-16T15:45:00.582Z,17.68
2023-04-16T15:50:00.608Z,17.13
2023-04-16T15:55:02.248Z,17.13
2023-04-16T16:05:00.378Z,17.13
2023-04-16T16:10:00.552Z,17.16
2023-04-16T16:15:03.701Z,17.33
2023-04-16T16:20:00.349Z,16.82
2023-04-16T16:25:00.435Z,16.82
2023-04-16T16:30:01.109Z,16.82
2023-04-16T16:35:00.308Z,16.82
2023-04-16T16:40:00.730Z,16.82
2023-04-16T16:45:00.526Z,16.82
2023-04-16T16:50:02.717Z,16.82
2023-04-16T16:55:00.334Z,16.82
2023-04-16T17:00:00.576Z,16.79
2023-04-16T17:05:00.336Z,16.79
2023-04-16T17:10:03.074Z,16.9
2023-04-16T17:15:00.415Z,16.9
2023-04-16T17:20:00.380Z,16.9
2023-04-16T17:25:00.737Z,16.9
2023-04-16T17:30:00.420Z,15.86
2023-04-16T17:35:00.487Z,15.35
2023-04-16T17:40:00.492Z,15.35
2023-04-16T17:45:00.435Z,15.35
2023-04-16T17:50:00.338Z,14.84
2023-04-16T17:55:00.412Z,14.84
2023-04-16T18:00:00.539Z,14.67
2023-04-16T18:05:00.413Z,14.67
2023-04-16T18:10:01.193Z,14.67
2023-04-16T18:15:00.443Z,14.67
2023-04-16T18:20:00.473Z,15.87
2023-04-16T18:25:00.490Z,15.87
2023-04-16T18:30:00.596Z,16.42
2023-04-16T18:35:00.365Z,16.42
2023-04-16T18:40:00.616Z,16.94
2023-04-16T18:45:00.468Z,16.94
2023-04-16T18:50:00.345Z,17
2023-04-16T18:55:00.460Z,17.24
2023-04-16T19:00:00.685Z,17.24
2023-04-16T19:05:00.354Z,17.24
2023-04-16T19:10:00.495Z,16.61
2023-04-16T19:15:00.597Z,16.03
2023-04-16T19:20:00.558Z,16.03
2023-04-16T19:25:00.487Z,15.49
2023-04-16T19:30:00.501Z,14.97
2023-04-16T19:35:00.355Z,14.97
2023-04-16T19:40:00.464Z,14.97
2023-04-16T19:45:00.396Z,14.97
2023-04-16T19:50:00.390Z,14.97
2023-04-16T19:55:00.509Z,14.7
2023-04-16T20:00:01.211Z,14.7
2023-04-16T20:05:00.341Z,14.7
2023-04-16T20:10:00.435Z,14.86
2023-04-16T20:15:00.397Z,14.86
2023-04-16T20:20:00.506Z,14.86
2023-04-16T20:25:01.173Z,14.86
2023-04-16T20:30:00.401Z,14.86
2023-04-16T20:35:00.486Z,14.86
2023-04-16T20:40:00.390Z,14.86
2023-04-16T20:45:00.441Z,14.35
2023-04-16T20:50:00.333Z,14.86
2023-04-16T20:55:00.463Z,15.2
2023-04-16T21:00:00.574Z,15.2
2023-04-16T21:05:00.362Z,15.41
2023-04-16T21:10:00.460Z,15.41
2023-04-16T21:15:00.673Z,15.41
2023-04-16T21:20:00.331Z,15.41
2023-04-16T21:25:00.399Z,15.41
2023-04-16T21:30:00.789Z,14.89
2023-04-16T21:35:00.352Z,14.89
2023-04-16T21:40:00.511Z,14.89
2023-04-16T21:45:00.477Z,14.38
2023-04-16T21:50:00.463Z,14.08
2023-04-16T21:55:00.602Z,13.87
2023-04-16T22:00:00.659Z,13.87
2023-04-16T22:05:00.343Z,13.87
2023-04-16T22:10:00.434Z,13.59
2023-04-16T22:15:03.179Z,13.59
2023-04-16T22:20:00.356Z,14.11
2023-04-16T22:25:00.397Z,14.04
2023-04-16T22:30:00.446Z,13.53
2023-04-16T22:35:00.382Z,14.04
2023-04-16T22:40:00.505Z,14.04
2023-04-16T22:45:00.444Z,13.53
2023-04-16T22:50:00.370Z,13.09
2023-04-16T22:55:00.429Z,13.05
2023-04-16T23:00:04.626Z,13.6
2023-04-16T23:05:00.343Z,13.56
2023-04-16T23:10:00.480Z,13.56
2023-04-16T23:15:00.487Z,13.56
2023-04-16T23:20:00.374Z,13.04
2023-04-16T23:25:00.505Z,13.01
2023-04-16T23:30:00.472Z,13.62
2023-04-16T23:35:00.323Z,13.11
2023-04-16T23:40:00.560Z,12.6
2023-04-16T23:45:00.398Z,12.6
2023-04-16T23:50:00.460Z,13.19
2023-04-16T23:55:01.322Z,12.87
